Time;durP1;ratioP1;P1;durP2;ratioP2;P2;SDS_P1;SDS_P2;PMS_P1;PMS_P2;Temp;Humidity;BMP_temperature;BMP_pressure;BME280_temperature;BME280_humidity;BME280_pressure;Samples;Min_cycle;Max_cycle;Signal;HPM_P1;HPM_P2
2020/12/09 00:00:30;;;;;;;19.77;8.43;;;;;;;6.60;63.14;102098.77;1731990;82;21164;-47
2020/12/09 00:02:58;;;;;;;15.65;8.73;;;;;;;6.63;62.98;102100.53;1734623;82;21160;-47
2020/12/09 00:05:26;;;;;;;14.93;9.45;;;;;;;6.63;62.85;102110.88;1729250;82;21620;-47
2020/12/09 00:07:54;;;;;;;14.78;8.75;;;;;;;6.65;62.85;102106.19;1738665;82;21152;-47
2020/12/09 00:10:23;;;;;;;18.75;9.13;;;;;;;6.65;63.00;102106.59;1726573;82;21169;-46
2020/12/09 00:12:52;;;;;;;17.75;8.55;;;;;;;6.64;62.95;102117.36;1737902;82;21323;-47
2020/12/09 00:15:20;;;;;;;14.43;8.18;;;;;;;6.65;62.91;102111.77;1729955;82;21180;-47
2020/12/09 00:17:48;;;;;;;15.08;8.75;;;;;;;6.69;62.67;102109.67;1732948;82;21109;-47
2020/12/09 00:20:17;;;;;;;14.90;8.03;;;;;;;6.69;62.59;102112.27;1734437;82;21152;-46
2020/12/09 00:22:45;;;;;;;17.32;8.60;;;;;;;6.69;62.62;102113.56;1737213;82;21283;-47
2020/12/09 00:25:14;;;;;;;13.65;8.43;;;;;;;6.69;62.57;102118.73;1739121;82;21589;-47
2020/12/09 00:27:42;;;;;;;14.85;8.43;;;;;;;6.70;62.57;102120.48;1729805;82;21180;-46
2020/12/09 00:30:10;;;;;;;12.65;8.18;;;;;;;6.71;62.45;102117.04;1733133;82;21141;-47
2020/12/09 00:32:38;;;;;;;20.57;8.23;;;;;;;6.71;62.43;102120.92;1734186;82;21180;-47
2020/12/09 00:35:07;;;;;;;12.45;8.00;;;;;;;6.73;62.45;102110.17;1728884;82;21156;-46
2020/12/09 00:37:36;;;;;;;13.10;7.97;;;;;;;6.72;62.45;102113.62;1730483;82;21125;-46
2020/12/09 00:40:05;;;;;;;13.40;8.45;;;;;;;6.70;62.43;102112.73;1730926;82;21184;-47
2020/12/09 00:42:34;;;;;;;15.10;8.40;;;;;;;6.69;62.31;102101.92;1733348;82;21180;-47
2020/12/09 00:45:02;;;;;;;15.28;7.60;;;;;;;6.65;62.32;102107.48;1732415;82;21140;-47
2020/12/09 00:47:32;;;;;;;21.95;8.55;;;;;;;6.63;62.45;102100.53;1733787;82;21133;-47
2020/12/09 00:52:43;;;;;;;17.62;8.03;;;;;;;6.63;62.48;102102.70;1726985;81;21161;-46
2020/12/09 00:55:13;;;;;;;15.20;7.95;;;;;;;6.65;62.55;102098.84;1727616;82;21566;-47
2020/12/09 00:57:43;;;;;;;17.27;8.38;;;;;;;6.65;62.44;102101.42;1718256;82;21160;-47
2020/12/09 01:00:13;;;;;;;15.28;8.93;;;;;;;6.65;62.47;102104.02;1730795;82;21184;-47
2020/12/09 01:02:44;;;;;;;15.45;8.20;;;;;;;6.64;62.41;102100.55;1724743;82;21168;-46
2020/12/09 01:05:14;;;;;;;16.70;8.63;;;;;;;6.65;62.43;102102.30;1724422;82;21153;-47
2020/12/09 01:07:43;;;;;;;17.15;8.78;;;;;;;6.65;62.43;102102.30;1729942;82;21161;-46
2020/12/09 01:10:11;;;;;;;14.87;8.28;;;;;;;6.66;62.29;102098.02;1723611;82;21161;-46
2020/12/09 01:12:40;;;;;;;17.35;8.73;;;;;;;6.65;62.21;102104.02;1728351;82;21149;-46
2020/12/09 01:15:09;;;;;;;12.78;7.85;;;;;;;6.65;62.27;102106.19;1718545;82;21133;-47
2020/12/09 01:17:38;;;;;;;17.85;9.18;;;;;;;6.67;62.33;102102.32;1730956;82;21153;-46
2020/12/09 01:20:06;;;;;;;14.78;8.00;;;;;;;6.67;62.37;102094.56;1719292;82;21299;-46
2020/12/09 01:22:35;;;;;;;14.47;8.30;;;;;;;6.70;62.44;102103.67;1727358;82;21149;-47
2020/12/09 01:25:04;;;;;;;16.60;8.55;;;;;;;6.71;62.36;102104.11;1724016;82;21303;-47
2020/12/09 01:27:32;;;;;;;11.55;7.75;;;;;;;6.73;62.29;102101.12;1722904;82;21157;-46
2020/12/09 01:30:00;;;;;;;13.83;7.55;;;;;;;6.72;62.15;102101.98;1722078;82;21342;-47
2020/12/09 01:32:28;;;;;;;19.77;9.33;;;;;;;6.72;62.03;102105.86;1723940;82;21586;-47
2020/12/09 01:34:57;;;;;;;15.08;8.33;;;;;;;6.71;61.97;102105.40;1723513;82;21149;-47
2020/12/09 01:37:25;;;;;;;19.92;8.65;;;;;;;6.72;62.00;102109.74;1730984;82;21161;-47
2020/12/09 01:39:53;;;;;;;13.78;6.70;;;;;;;6.71;62.06;102112.74;1721415;82;21573;-46
2020/12/09 01:42:22;;;;;;;14.50;7.35;;;;;;;6.51;62.75;102118.88;1733941;82;21157;-47
2020/12/09 01:44:50;;;;;;;16.25;8.53;;;;;;;6.71;61.95;102114.45;1726981;82;21602;-46
2020/12/09 01:47:18;;;;;;;15.35;8.20;;;;;;;6.33;62.92;102115.98;1720573;82;21165;-47
2020/12/09 01:49:46;;;;;;;15.83;7.75;;;;;;;6.17;63.34;102115.28;1718881;82;21137;-47
2020/12/09 01:52:16;;;;;;;17.40;8.50;;;;;;;6.14;63.61;102107.45;1732608;81;21150;-46
2020/12/09 01:54:44;;;;;;;14.98;7.62;;;;;;;6.14;63.81;102107.45;1733579;82;21133;-46
2020/12/09 01:57:14;;;;;;;18.60;7.97;;;;;;;6.14;63.96;102112.63;1714789;82;21144;-46
2020/12/09 01:59:45;;;;;;;;;;;;;;;6.15;63.96;102106.62;1740183;82;21158;-47
2020/12/09 02:02:13;;;;;;;15.30;7.30;;;;;;;6.15;64.04;102108.34;1736874;82;20152;-46
2020/12/09 02:04:41;;;;;;;17.10;8.53;;;;;;;6.13;64.18;102107.02;1697414;83;21282;-47
2020/12/09 02:07:09;;;;;;;14.50;7.28;;;;;;;6.15;64.29;102104.05;1734235;82;21160;-47
2020/12/09 02:09:38;;;;;;;13.65;7.00;;;;;;;6.16;64.26;102101.89;1740551;82;21145;-46
2020/12/09 02:12:07;;;;;;;15.05;8.23;;;;;;;6.17;64.29;102104.94;1738350;82;21294;-47
2020/12/09 02:14:36;;;;;;;14.80;7.60;;;;;;;6.19;64.25;102108.42;1738935;82;21218;-47
2020/12/09 02:17:04;;;;;;;14.28;7.53;;;;;;;6.20;64.22;102112.73;1738466;82;21596;-47
2020/12/09 02:19:32;;;;;;;16.50;8.95;;;;;;;6.22;64.26;102116.21;1747894;82;21310;-46
2020/12/09 02:22:12;;;;;;;14.20;7.72;;;;;;;6.24;64.35;102121.02;1737248;82;21117;-47
2020/12/09 02:24:40;;;;;;;17.00;7.92;;;;;;;6.26;64.38;102116.75;1732224;82;21117;-47
2020/12/09 02:27:09;;;;;;;13.65;7.55;;;;;;;6.28;64.13;102113.77;1738761;82;21200;-46
2020/12/09 02:29:38;;;;;;;16.05;7.78;;;;;;;6.29;64.01;102117.20;1742379;82;21124;-47
2020/12/09 02:32:06;;;;;;;14.87;7.22;;;;;;;6.28;64.00;102116.34;1744712;82;21165;-47
2020/12/09 02:34:35;;;;;;;15.58;7.40;;;;;;;6.74;62.74;102109.34;1732731;82;21298;-47
2020/12/09 02:37:03;;;;;;;15.45;7.72;;;;;;;6.82;62.32;102112.91;1741962;82;21589;-46
2020/12/09 02:39:33;;;;;;;16.37;7.72;;;;;;;6.85;62.23;102120.70;1737481;81;21144;-47
2020/12/09 02:42:01;;;;;;;21.60;8.33;;;;;;;6.87;62.12;102122.89;1737753;82;21184;-46
2020/12/09 02:44:30;;;;;;;13.80;7.87;;;;;;;6.86;62.05;102112.95;1742017;82;21292;-47
2020/12/09 02:46:58;;;;;;;15.35;7.30;;;;;;;6.89;62.06;102117.31;1734678;82;21159;-47
2020/12/09 02:49:27;;;;;;;15.88;8.18;;;;;;;6.91;61.99;102120.38;1741238;82;21157;-46
2020/12/09 02:51:55;;;;;;;14.18;8.25;;;;;;;6.93;61.83;102121.69;1738453;82;21302;-47
2020/12/09 02:54:23;;;;;;;14.80;8.48;;;;;;;6.91;61.84;102119.50;1726213;82;21658;-47
2020/12/09 02:56:51;;;;;;;17.48;8.45;;;;;;;6.94;61.95;102127.32;1724600;82;21295;-47
2020/12/09 02:59:19;;;;;;;14.45;7.97;;;;;;;6.96;61.97;102121.74;1725867;82;21118;-47
2020/12/09 03:01:48;;;;;;;21.35;8.30;;;;;;;6.99;61.95;102123.06;1730676;82;21279;-47
2020/12/09 03:04:16;;;;;;;13.22;7.85;;;;;;;7.03;61.98;102128.73;1718036;82;21307;-46
2020/12/09 03:06:44;;;;;;;16.02;8.33;;;;;;;7.05;61.92;102125.32;1729226;81;21165;-46
2020/12/09 03:09:13;;;;;;;14.40;7.70;;;;;;;7.08;61.84;102130.97;1722061;82;21148;-47
2020/12/09 03:11:41;;;;;;;14.75;7.75;;;;;;;7.10;61.65;102131.86;1724603;82;21129;-47
2020/12/09 03:14:10;;;;;;;13.70;7.03;;;;;;;7.10;61.55;102134.45;1721119;82;21157;-47
2020/12/09 03:16:38;;;;;;;14.55;7.58;;;;;;;7.08;61.52;102120.62;1728378;82;21284;-47
2020/12/09 03:19:06;;;;;;;14.47;7.40;;;;;;;7.07;61.46;102130.52;1726703;82;21168;-47
2020/12/09 03:21:35;;;;;;;16.37;7.87;;;;;;;7.04;61.44;102129.19;1730956;82;21156;-47
2020/12/09 03:24:03;;;;;;;18.95;8.43;;;;;;;7.06;61.46;102131.37;1726541;82;21287;-46
2020/12/09 03:26:31;;;;;;;14.23;8.10;;;;;;;7.07;61.41;102134.39;1721064;82;21125;-47
2020/12/09 03:29:00;;;;;;;15.80;7.87;;;;;;;7.07;61.45;102127.92;1727667;82;21291;-46
2020/12/09 03:31:28;;;;;;;17.77;8.13;;;;;;;7.10;61.43;102137.04;1723796;82;21311;-46
2020/12/09 03:33:56;;;;;;;15.98;7.70;;;;;;;7.11;61.40;102135.76;1724652;82;21165;-47
2020/12/09 03:36:25;;;;;;;15.75;7.62;;;;;;;7.13;61.49;102133.22;1724143;82;21185;-47
2020/12/09 03:38:53;;;;;;;13.93;7.03;;;;;;;7.14;61.50;102129.77;1726772;82;21209;-47
2020/12/09 03:41:21;;;;;;;14.25;7.50;;;;;;;7.14;61.40;102124.59;1727476;82;21145;-47
2020/12/09 03:43:49;;;;;;;17.07;7.83;;;;;;;7.14;61.34;102129.77;1719597;82;21117;-47
2020/12/09 03:46:18;;;;;;;13.50;7.08;;;;;;;7.16;61.40;102137.12;1731030;82;21220;-47
2020/12/09 03:48:48;;;;;;;15.83;7.50;;;;;;;7.17;61.50;102140.17;1720621;82;21164;-46
2020/12/09 03:51:16;;;;;;;12.85;7.90;;;;;;;7.16;61.59;102141.00;1726795;82;21125;-47
2020/12/09 03:53:46;;;;;;;13.22;7.62;;;;;;;7.12;61.79;102141.81;1724260;82;21169;-46
2020/12/09 03:56:14;;;;;;;17.05;7.90;;;;;;;7.10;61.74;102140.92;1724602;82;21161;-47
2020/12/09 03:58:43;;;;;;;17.42;7.55;;;;;;;7.10;61.74;102149.98;1724005;82;21161;-47
2020/12/09 04:01:11;;;;;;;13.30;6.95;;;;;;;7.09;61.65;102154.28;1725673;82;21295;-46
2020/12/09 04:03:39;;;;;;;16.27;8.00;;;;;;;7.09;61.60;102149.55;1727536;82;21302;-46
2020/12/09 04:06:08;;;;;;;14.90;8.00;;;;;;;7.06;61.57;102151.66;1719197;82;21121;-47
2020/12/09 04:08:36;;;;;;;16.15;7.58;;;;;;;7.07;61.72;102153.80;1730815;82;21149;-47
2020/12/09 04:11:04;;;;;;;14.87;7.90;;;;;;;7.08;61.58;102150.38;1718365;82;21277;-47
2020/12/09 04:13:33;;;;;;;12.18;6.92;;;;;;;7.10;61.49;102156.45;1728043;82;21157;-46
2020/12/09 04:16:01;;;;;;;14.25;8.08;;;;;;;7.06;61.46;102150.38;1723639;82;21463;-46
2020/12/09 04:18:30;;;;;;;15.08;8.08;;;;;;;7.03;61.63;102158.08;1723294;82;21150;-46
2020/12/09 04:20:58;;;;;;;12.05;7.58;;;;;;;7.02;61.87;102161.53;1728617;82;21295;-46
2020/12/09 04:23:26;;;;;;;13.78;8.30;;;;;;;7.04;62.01;102164.12;1721171;82;21581;-47
2020/12/09 04:25:54;;;;;;;16.23;7.83;;;;;;;7.07;62.05;102160.27;1726361;82;21547;-47
2020/12/09 04:28:23;;;;;;;14.73;7.90;;;;;;;7.08;61.95;102163.33;1726965;82;21728;-47
2020/12/09 04:30:51;;;;;;;14.10;7.92;;;;;;;7.06;61.95;102159.84;1731034;82;21153;-47
2020/12/09 04:33:27;;;;;;;18.23;8.98;;;;;;;7.05;61.97;102152.91;1728455;82;21145;-46
2020/12/09 04:35:56;;;;;;;14.65;7.92;;;;;;;7.06;62.10;102159.84;1723803;82;21605;-46
2020/12/09 04:38:25;;;;;;;14.58;8.00;;;;;;;7.08;62.13;102159.44;1726859;82;21196;-46
2020/12/09 04:40:53;;;;;;;15.00;7.72;;;;;;;7.12;62.08;102165.11;1731003;81;21319;-47
2020/12/09 04:43:21;;;;;;;15.30;7.85;;;;;;;7.13;61.83;102164.28;1712432;82;21161;-47
2020/12/09 04:45:50;;;;;;;15.40;7.62;;;;;;;7.09;61.80;102167.67;1724344;82;21558;-47
2020/12/09 04:48:18;;;;;;;18.70;8.10;;;;;;;7.09;61.82;102173.69;1726114;82;21149;-47
2020/12/09 04:50:58;;;;;;;13.25;7.37;;;;;;;7.08;61.84;102174.55;1728511;82;21173;-47
2020/12/09 04:53:30;;;;;;;17.25;8.00;;;;;;;7.07;61.95;102174.51;1673727;84;21199;-46
2020/12/09 04:55:59;;;;;;;11.93;7.10;;;;;;;7.07;61.89;102174.51;1669459;85;21247;-47
2020/12/09 04:58:43;;;;;;;12.73;6.97;;;;;;;7.08;61.98;102173.67;1642573;87;21197;-47
2020/12/09 05:01:14;;;;;;;19.40;7.72;;;;;;;7.09;62.09;102173.69;1674292;85;21203;-47
2020/12/09 05:03:51;;;;;;;18.02;9.75;;;;;;;7.18;62.11;102170.38;1756878;79;38671;-47
2020/12/09 05:06:19;;;;;;;21.23;9.27;;;;;;;7.22;62.01;102174.75;1716609;83;21178;-47
2020/12/09 05:08:58;;;;;;;15.35;8.08;;;;;;;7.31;61.79;102181.36;1717721;83;21494;-47
2020/12/09 05:11:27;;;;;;;14.45;7.33;;;;;;;7.32;61.65;102179.20;1713621;83;21284;-47
2020/12/09 05:13:56;;;;;;;15.35;7.20;;;;;;;7.31;61.52;102183.95;1718495;83;21681;-46
2020/12/09 05:16:25;;;;;;;14.10;7.42;;;;;;;7.27;61.54;102189.48;1718394;81;21175;-46
2020/12/09 05:18:57;;;;;;;12.47;7.00;;;;;;;7.24;61.40;102189.46;1717228;83;21190;-47
2020/12/09 05:21:26;;;;;;;16.17;7.30;;;;;;;7.22;61.45;102179.51;1715658;83;21171;-47
2020/12/09 05:23:57;;;;;;;13.62;7.00;;;;;;;7.19;61.51;102191.55;1715599;83;21329;-47
2020/12/09 05:26:33;;;;;;;14.87;8.13;;;;;;;7.18;61.62;102189.37;1715556;83;21183;-47
2020/12/09 05:29:15;;;;;;;15.18;7.85;;;;;;;7.25;61.63;102183.86;1771544;79;22912;-47
2020/12/09 05:31:48;;;;;;;12.68;7.50;;;;;;;7.21;61.60;102193.73;1728967;82;21121;-47
2020/12/09 05:34:29;;;;;;;11.08;6.92;;;;;;;7.19;61.56;102196.72;1700352;84;21143;-47
2020/12/09 05:37:03;;;;;;;13.53;7.62;;;;;;;7.19;61.71;102192.84;1685653;85;21172;-47
2020/12/09 05:39:31;;;;;;;15.43;7.33;;;;;;;7.21;61.73;102204.09;1699337;84;21160;-47
2020/12/09 05:42:15;;;;;;;20.88;9.23;;;;;;;7.21;61.77;102204.94;1701490;84;21175;-47
2020/12/09 05:44:49;;;;;;;12.30;6.92;;;;;;;7.28;61.82;102207.20;1778992;79;22915;-47
2020/12/09 05:47:20;;;;;;;13.72;6.75;;;;;;;7.27;61.70;102211.95;1743976;82;21149;-47
2020/12/09 05:49:49;;;;;;;11.70;6.87;;;;;;;7.27;61.51;102211.95;1742091;82;21196;-47
2020/12/09 05:52:20;;;;;;;13.68;7.25;;;;;;;7.26;61.47;102210.19;1735339;82;22248;-47
2020/12/09 05:54:51;;;;;;;12.65;7.47;;;;;;;7.26;61.52;102216.66;1743405;82;21173;-47
2020/12/09 05:57:24;;;;;;;15.17;7.90;;;;;;;7.25;61.56;102221.41;1731970;83;21203;-46
2020/12/09 05:59:54;;;;;;;12.65;6.95;;;;;;;7.24;61.55;102223.53;1699910;83;21183;-47
2020/12/09 06:02:24;;;;;;;16.25;7.50;;;;;;;7.26;61.53;102225.72;1722918;83;21167;-47
2020/12/09 06:04:56;;;;;;;12.43;7.42;;;;;;;7.26;61.42;102225.72;1724195;83;21135;-46
2020/12/09 06:07:26;;;;;;;11.73;6.53;;;;;;;7.23;61.37;102232.16;1725401;83;21276;-47
2020/12/09 06:10:18;;;;;;;14.18;6.95;;;;;;;7.27;61.36;102222.30;1725177;83;21568;-46
2020/12/09 06:15:34;;;;;;;12.37;7.20;;;;;;;7.29;61.54;102227.08;1813306;79;22804;-47
2020/12/09 06:18:09;;;;;;;17.55;8.63;;;;;;;7.24;61.62;102232.59;1780045;80;21203;-47
2020/12/09 06:20:39;;;;;;;15.60;7.72;;;;;;;7.25;61.67;102236.94;1760571;80;21592;-47
2020/12/09 06:23:12;;;;;;;18.50;8.30;;;;;;;7.27;61.65;102236.09;1771514;80;21186;-47
2020/12/09 06:25:41;;;;;;;16.20;7.65;;;;;;;7.28;61.70;102224.02;1770375;80;21548;-47
2020/12/09 06:28:20;;;;;;;14.28;8.03;;;;;;;7.27;61.77;102232.66;1772090;80;21135;-47
2020/12/09 06:30:49;;;;;;;15.88;8.50;;;;;;;7.28;62.00;102230.50;1761442;80;21214;-47
2020/12/09 06:33:41;;;;;;;16.15;8.10;;;;;;;7.27;62.11;102230.06;1772286;80;21576;-47
2020/12/09 06:36:21;;;;;;;14.15;7.95;;;;;;;7.29;62.20;102228.37;1772604;80;21192;-47
2020/12/09 06:39:13;;;;;;;13.13;7.45;;;;;;;7.33;62.20;102229.73;1774343;80;21167;-47
2020/12/09 06:41:48;;;;;;;12.70;7.53;;;;;;;7.35;62.16;102229.75;1774282;80;21157;-47
2020/12/09 06:44:17;;;;;;;13.93;7.33;;;;;;;7.36;62.07;102231.06;1771743;80;21314;-46
2020/12/09 06:46:48;;;;;;;13.93;7.08;;;;;;;7.34;62.01;102230.59;1773106;80;21257;-47
2020/12/09 06:49:36;;;;;;;12.37;7.25;;;;;;;7.31;62.07;102222.38;1771755;80;21155;-47
2020/12/09 06:52:15;;;;;;;13.40;8.63;;;;;;;7.31;62.09;102222.38;1778665;80;21179;-47
2020/12/09 06:54:49;;;;;;;13.20;7.25;;;;;;;7.38;62.25;102216.83;1771306;79;22990;-47
2020/12/09 06:57:33;;;;;;;15.28;7.80;;;;;;;7.36;62.15;102227.59;1738557;82;21453;-47
2020/12/09 07:00:17;;;;;;;13.93;7.65;;;;;;;7.35;61.96;102218.10;1738406;82;21184;-47
2020/12/09 07:02:48;;;;;;;17.32;8.28;;;;;;;7.38;62.00;102212.95;1738154;82;21206;-47
2020/12/09 07:05:20;;;;;;;13.40;7.55;;;;;;;7.41;62.17;102213.01;1737165;82;21583;-47
2020/12/09 07:07:51;;;;;;;15.35;6.87;;;;;;;7.41;62.18;102216.89;1731914;82;21113;-47
2020/12/09 07:10:23;;;;;;;13.78;7.58;;;;;;;7.43;62.15;102221.67;1734754;82;21184;-47
2020/12/09 07:13:06;;;;;;;13.03;7.40;;;;;;;7.46;62.04;102224.28;1689484;84;21307;-47
2020/12/09 07:15:37;;;;;;;14.85;7.75;;;;;;;7.47;61.92;102226.05;1690271;84;21219;-47
2020/12/09 07:18:11;;;;;;;15.70;8.68;;;;;;;7.51;61.95;102230.41;1810674;79;22345;-47
2020/12/09 07:20:40;;;;;;;17.90;8.55;;;;;;;7.46;62.11;102229.47;1775423;80;21187;-47
2020/12/09 07:23:08;;;;;;;14.95;7.42;;;;;;;7.47;62.09;102231.22;1774386;80;21176;-46
2020/12/09 07:25:36;;;;;;;13.30;7.47;;;;;;;7.48;62.11;102230.36;1771954;80;21313;-47
2020/12/09 07:28:05;;;;;;;14.70;8.10;;;;;;;7.48;62.07;102232.95;1774031;80;21155;-47
2020/12/09 07:30:34;;;;;;;12.73;7.20;;;;;;;7.49;61.96;102231.23;1774499;80;21142;-47
2020/12/09 07:33:02;;;;;;;16.05;7.55;;;;;;;7.47;61.94;102228.62;1775147;80;21298;-46
2020/12/09 07:35:31;;;;;;;14.43;7.40;;;;;;;7.48;61.94;102235.53;1775071;80;21158;-47
2020/12/09 07:38:00;;;;;;;17.67;8.30;;;;;;;7.48;61.96;102235.53;1773603;80;21155;-47
2020/12/09 07:40:34;;;;;;;15.40;7.87;;;;;;;7.49;62.02;102237.30;1771459;80;21352;-47
2020/12/09 07:43:06;;;;;;;14.83;7.83;;;;;;;7.52;61.97;102239.94;1772259;80;21160;-46
2020/12/09 07:45:40;;;;;;;15.28;8.35;;;;;;;7.53;61.94;102236.48;1764587;80;21139;-47
2020/12/09 07:48:13;;;;;;;21.50;8.70;;;;;;;7.54;62.02;102242.55;1742525;81;21244;-47
2020/12/09 07:50:51;;;;;;;11.45;7.55;;;;;;;7.59;62.08;102238.28;1771098;79;22967;-47
2020/12/09 07:53:20;;;;;;;16.10;7.55;;;;;;;7.56;62.16;102240.43;1740392;82;21156;-47
2020/12/09 07:55:49;;;;;;;11.97;6.67;;;;;;;7.58;62.04;102239.15;1741974;82;21274;-47
2020/12/09 07:58:18;;;;;;;14.93;7.87;;;;;;;7.57;62.10;102238.27;1721175;82;21136;-48
2020/12/09 08:00:49;;;;;;;19.35;7.80;;;;;;;7.56;62.10;102239.14;1736948;82;21141;-47
2020/12/09 08:03:23;;;;;;;;;;;;;;;7.57;62.08;102242.57;1747158;82;21278;-44
2020/12/09 08:05:55;;;;;;;14.73;7.15;;;;;;;7.55;62.24;102247.73;1648879;85;20222;-47
2020/12/09 08:08:25;;;;;;;;;;;;;;;7.59;62.33;102249.52;1664862;85;21187;-45
2020/12/09 08:10:53;;;;;;;15.32;8.63;;;;;;;7.60;62.24;102253.87;1664458;85;20169;-47
2020/12/09 08:13:25;;;;;;;20.30;7.80;;;;;;;7.61;62.21;102255.59;1665088;85;21744;-47
2020/12/09 08:16:11;;;;;;;13.50;7.22;;;;;;;7.61;62.18;102259.89;1665472;85;21249;-47
2020/12/09 08:18:38;;;;;;;16.35;8.15;;;;;;;7.60;62.07;102256.46;1665614;85;21592;-47
2020/12/09 08:21:08;;;;;;;15.58;7.55;;;;;;;7.59;62.13;102259.88;1665351;85;21195;-47
2020/12/09 08:23:46;;;;;;;13.25;7.85;;;;;;;7.59;62.18;102261.17;1664229;85;21333;-46
2020/12/09 08:26:29;;;;;;;15.43;7.50;;;;;;;7.60;62.24;102261.64;1652817;85;21192;-47
2020/12/09 08:28:58;;;;;;;15.35;8.28;;;;;;;7.65;62.30;102265.15;1661342;85;21317;-46
2020/12/09 08:31:26;;;;;;;15.35;8.00;;;;;;;7.67;62.13;102267.34;1661769;85;21164;-47
2020/12/09 08:33:54;;;;;;;14.38;7.97;;;;;;;7.70;62.00;102260.04;1653988;85;21249;-47
2020/12/09 08:36:22;;;;;;;15.98;7.05;;;;;;;7.72;61.98;102266.98;1663645;85;21139;-47
2020/12/09 08:39:00;;;;;;;14.83;7.25;;;;;;;7.72;61.87;102261.81;1664277;85;21179;-47
2020/12/09 08:41:31;;;;;;;20.20;8.68;;;;;;;7.73;61.78;102263.53;1660711;85;21191;-47
2020/12/09 08:44:06;;;;;;;15.13;8.00;;;;;;;7.74;61.85;102269.17;1655195;85;21175;-46
2020/12/09 08:46:34;;;;;;;16.15;8.45;;;;;;;7.75;61.87;102262.28;1667005;85;21211;-47
2020/12/09 08:49:03;;;;;;;16.82;8.23;;;;;;;7.74;61.87;102257.94;1662842;84;21173;-47
2020/12/09 08:51:33;;;;;;;18.02;7.75;;;;;;;7.77;61.92;102257.54;1652066;86;21196;-46
2020/12/09 08:54:05;;;;;;;13.98;7.67;;;;;;;7.78;61.87;102259.30;1645344;86;21179;-47
2020/12/09 08:56:34;;;;;;;15.53;8.55;;;;;;;7.80;61.78;102262.78;1650931;86;21155;-47
2020/12/09 08:59:02;;;;;;;16.07;8.45;;;;;;;7.79;61.63;102263.61;1648468;86;21176;-47
2020/12/09 09:01:38;;;;;;;16.30;8.13;;;;;;;7.77;61.59;102260.13;1655644;84;21204;-47
2020/12/09 09:04:10;;;;;;;16.10;7.70;;;;;;;7.75;61.70;102262.28;1710872;84;21316;-46
2020/12/09 09:06:38;;;;;;;15.28;8.43;;;;;;;7.74;61.79;102262.70;1715658;84;21592;-47
2020/12/09 09:09:07;;;;;;;16.45;8.15;;;;;;;7.75;61.70;102259.69;1715525;83;22364;-47
2020/12/09 09:11:36;;;;;;;12.05;7.95;;;;;;;7.72;61.60;102254.03;1715929;84;21183;-47
2020/12/09 09:14:04;;;;;;;19.80;9.05;;;;;;;7.71;61.70;102258.75;1715612;84;21285;-47
2020/12/09 09:16:35;;;;;;;16.45;8.58;;;;;;;7.71;61.65;102252.28;1715820;83;21322;-47
2020/12/09 09:19:04;;;;;;;17.67;8.68;;;;;;;7.72;61.73;102246.27;1712756;83;21164;-47
2020/12/09 09:21:33;;;;;;;14.73;8.10;;;;;;;7.74;61.71;102245.86;1715609;84;21282;-46
2020/12/09 09:24:01;;;;;;;17.45;8.43;;;;;;;7.75;61.67;102240.26;1715757;84;21199;-46
2020/12/09 09:26:35;;;;;;;14.35;9.03;;;;;;;7.74;61.69;102238.08;1715552;84;21164;-47
2020/12/09 09:29:04;;;;;;;17.57;9.08;;;;;;;7.71;61.68;102232.84;1715920;84;21164;-47
2020/12/09 09:31:33;;;;;;;18.92;9.28;;;;;;;7.73;61.84;102239.37;1715626;82;21322;-47
2020/12/09 09:34:01;;;;;;;14.07;8.33;;;;;;;7.73;61.83;102245.84;1688002;84;21152;-47
2020/12/09 09:36:31;;;;;;;19.32;8.78;;;;;;;7.73;61.87;102244.55;1715906;83;21152;-47
2020/12/09 09:38:59;;;;;;;15.80;8.23;;;;;;;7.74;61.97;102248.45;1715570;83;21171;-47
2020/12/09 09:41:28;;;;;;;15.30;8.28;;;;;;;7.76;61.80;102252.34;1715826;83;21301;-47
2020/12/09 09:43:56;;;;;;;15.18;8.80;;;;;;;7.75;61.77;102264.42;1715719;83;21155;-47
2020/12/09 09:46:24;;;;;;;16.48;9.03;;;;;;;7.74;61.57;102261.82;1715567;83;21294;-47
2020/12/09 09:48:52;;;;;;;17.35;8.50;;;;;;;7.74;61.61;102266.59;1715898;82;21147;-47
2020/12/09 09:51:21;;;;;;;16.65;8.70;;;;;;;7.75;61.74;102264.88;1720860;82;21161;-46
2020/12/09 09:53:49;;;;;;;15.93;8.43;;;;;;;7.75;61.77;102261.83;1726206;82;21299;-47
2020/12/09 09:56:17;;;;;;;14.30;8.08;;;;;;;7.76;61.65;102262.71;1725946;82;21145;-47
2020/12/09 09:58:46;;;;;;;17.17;8.65;;;;;;;7.72;61.56;102265.70;1730448;82;21160;-47
2020/12/09 10:01:15;;;;;;;16.00;9.05;;;;;;;7.70;61.64;102268.69;1730893;82;21330;-47
2020/12/09 10:03:43;;;;;;;19.42;9.00;;;;;;;7.68;61.65;102263.91;1724649;82;21121;-47
2020/12/09 10:06:12;;;;;;;15.28;8.78;;;;;;;7.66;61.67;102268.62;1721318;82;21318;-46
2020/12/09 10:08:41;;;;;;;18.35;8.98;;;;;;;7.66;61.82;102265.61;1734681;82;21586;-46
2020/12/09 10:11:11;;;;;;;16.70;8.78;;;;;;;7.67;61.80;102267.75;1724286;82;21331;-47
2020/12/09 10:13:39;;;;;;;17.23;8.85;;;;;;;7.66;61.67;102268.20;1725834;82;21173;-47
2020/12/09 10:16:08;;;;;;;15.32;8.70;;;;;;;7.65;61.77;102263.85;1727112;82;21177;-46
2020/12/09 10:18:36;;;;;;;17.25;8.83;;;;;;;7.66;61.82;102261.72;1721525;82;21335;-47
2020/12/09 10:21:04;;;;;;;17.82;9.48;;;;;;;7.66;61.87;102261.72;1730565;82;21146;-47
2020/12/09 10:23:33;;;;;;;19.98;10.95;;;;;;;7.67;61.75;102270.34;1718526;82;21149;-47
2020/12/09 10:26:01;;;;;;;18.45;8.80;;;;;;;7.66;61.63;102265.61;1729644;81;21142;-47
2020/12/09 10:28:29;;;;;;;16.90;9.30;;;;;;;7.66;61.56;102269.50;1721934;82;21177;-47
2020/12/09 10:30:58;;;;;;;17.65;9.30;;;;;;;7.67;61.57;102281.58;1725086;82;21213;-47
2020/12/09 10:33:26;;;;;;;20.55;9.78;;;;;;;7.68;61.46;102277.28;1727793;82;21146;-47
2020/12/09 10:35:54;;;;;;;19.25;10.13;;;;;;;7.68;61.38;102280.75;1721045;82;21173;-43
2020/12/09 10:38:23;;;;;;;20.57;9.45;;;;;;;7.65;61.37;102273.34;1727103;82;21144;-47
2020/12/09 10:40:51;;;;;;;18.02;8.90;;;;;;;7.65;61.43;102265.15;1724303;82;21168;-47
2020/12/09 10:43:19;;;;;;;19.35;9.05;;;;;;;7.65;61.33;102270.33;1725082;82;21357;-47
2020/12/09 10:45:49;;;;;;;16.48;9.20;;;;;;;7.63;61.36;102266.84;1721140;82;21177;-46
2020/12/09 10:48:17;;;;;;;14.78;8.98;;;;;;;7.62;61.53;102267.72;1726780;82;21168;-47
2020/12/09 10:50:45;;;;;;;16.48;9.33;;;;;;;7.62;61.56;102259.94;1731520;82;21145;-47
2020/12/09 10:53:13;;;;;;;19.00;9.38;;;;;;;7.64;61.59;102258.66;1743287;82;21164;-47
2020/12/09 10:55:41;;;;;;;20.25;9.98;;;;;;;7.63;61.46;102259.49;1732257;82;21164;-47
2020/12/09 10:58:10;;;;;;;15.10;9.75;;;;;;;7.64;61.43;102262.55;1750901;82;21298;-47
2020/12/09 11:00:38;;;;;;;21.48;10.38;;;;;;;7.62;61.55;102259.06;1738996;82;21140;-47
2020/12/09 11:03:06;;;;;;;21.25;11.08;;;;;;;7.63;61.59;102266.84;1737415;82;21117;-47
2020/12/09 11:05:35;;;;;;;19.75;9.53;;;;;;;7.64;61.62;102263.42;1736981;82;21133;-48
2020/12/09 11:08:03;;;;;;;15.58;9.20;;;;;;;7.68;61.59;102272.98;1744820;82;21148;-47
2020/12/09 11:10:33;;;;;;;16.30;8.75;;;;;;;7.68;61.49;102262.62;1738161;82;21282;-49
2020/12/09 11:13:02;;;;;;;15.85;9.38;;;;;;;7.69;61.55;102264.34;1734036;82;21157;-47
2020/12/09 11:15:32;;;;;;;15.05;8.30;;;;;;;7.70;61.53;102266.09;1742258;82;21286;-47
2020/12/09 11:18:00;;;;;;;17.37;9.00;;;;;;;7.70;61.53;102257.45;1734268;82;21176;-47
2020/12/09 11:20:28;;;;;;;16.67;8.78;;;;;;;7.68;61.47;102257.44;1740975;82;21156;-46
2020/12/09 11:22:56;;;;;;;17.70;9.43;;;;;;;7.68;61.42;102264.33;1738325;82;21148;-47
2020/12/09 11:25:25;;;;;;;15.10;8.28;;;;;;;7.65;61.50;102267.73;1737408;82;21157;-48
2020/12/09 11:27:53;;;;;;;16.32;8.20;;;;;;;7.67;61.50;102259.98;1732309;82;21631;-48
2020/12/09 11:30:22;;;;;;;16.62;9.35;;;;;;;7.69;61.43;102259.16;1739475;82;21156;-47
2020/12/09 11:32:50;;;;;;;21.35;9.13;;;;;;;7.69;61.50;102257.86;1738622;80;21140;-47
2020/12/09 11:35:18;;;;;;;18.95;9.45;;;;;;;7.70;61.49;102255.73;1737155;82;21164;-47
2020/12/09 11:37:47;;;;;;;17.30;8.18;;;;;;;7.68;61.45;102253.55;1732090;82;21302;-47
2020/12/09 11:40:15;;;;;;;15.15;8.45;;;;;;;7.68;61.37;102255.27;1738481;82;21153;-47
2020/12/09 11:42:43;;;;;;;15.35;8.55;;;;;;;7.63;61.40;102251.30;1734339;82;21581;-48
2020/12/09 11:45:11;;;;;;;17.50;9.90;;;;;;;7.62;61.50;102249.58;1740008;82;21113;-47